Jacksonville, New York
Current Conditions -  °F | °C
As of 11:22 PM on Thursday 18 Dec 2014 (Local Time) from KITH Reporting Station
Light Snow Light Snow  
Wind Chill: 19°   Ceiling: 400
Heat Index: 28°   Visibility: 2.5mi
Dew Point: 28°   Wind: 10mph
Humidity: 100%   Direction: 330°NNW
Pressure: 30.01"   Gusts: NA
Location:  42.5°N, 76.6°W
Report Text: KITH 190422Z AUTO 33009KT 2 1/2SM -SN BR OVC004 M02/M02 A3001 RMK AO2 P0000
Loading
Personal Weather Stations






























Interactive Weather Map New forecast layout! Learn more

10-Day Weather Forecast

Advertisements
Track Severe Weather on mobile